Time;durP1;ratioP1;P1;durP2;ratioP2;P2;SDS_P1;SDS_P2;PMS_P1;PMS_P2;Temp;Humidity;BMP_temperature;BMP_pressure;BME280_temperature;BME280_humidity;BME280_pressure;Samples;Min_cycle;Max_cycle;Signal;HPM_P1;HPM_P2
2022/01/07 00:01:58;;;;;;;8.35;4.38;;;;;;;;;;5063797;28;20036;-53
2022/01/07 00:04:24;;;;;;;5.97;3.58;;;;;;;;;;5096701;28;20506;-48
2022/01/07 00:06:51;;;;;;;6.85;3.80;;;;;;;;;;5104064;28;20043;-49
2022/01/07 00:09:18;;;;;;;7.93;4.50;;;;;;;;;;5085539;28;20031;-48
2022/01/07 00:11:45;;;;;;;10.20;5.13;;;;;;;;;;5094201;28;20028;-49
2022/01/07 00:14:11;;;;;;;9.20;4.25;;;;;;;;;;5089032;28;20515;-48
2022/01/07 00:16:38;;;;;;;6.95;3.92;;;;;;;;;;5103480;28;20028;-47
2022/01/07 00:19:04;;;;;;;6.93;4.10;;;;;;;;;;5097297;28;20036;-48
2022/01/07 00:21:30;;;;;;;7.05;3.80;;;;;;;;;;5084796;28;20043;-46
2022/01/07 00:23:56;;;;;;;7.28;3.80;;;;;;;;;;5085443;28;20054;-50
2022/01/07 00:26:23;;;;;;;5.10;3.70;;;;;;;;;;5088162;28;20082;-47
2022/01/07 00:28:49;;;;;;;11.30;5.03;;;;;;;;;;5088144;28;20020;-48
2022/01/07 00:31:15;;;;;;;10.82;5.68;;;;;;;;;;5108203;28;20027;-50
2022/01/07 00:33:41;;;;;;;10.88;6.50;;;;;;;;;;5090617;28;20078;-47
2022/01/07 00:36:08;;;;;;;13.35;7.15;;;;;;;;;;5108761;28;20115;-47
2022/01/07 00:38:34;;;;;;;12.90;5.97;;;;;;;;;;5106504;28;20024;-47
2022/01/07 00:41:00;;;;;;;10.27;5.30;;;;;;;;;;5100092;28;20448;-47
2022/01/07 00:43:27;;;;;;;8.75;5.22;;;;;;;;;;5089071;28;20047;-48
2022/01/07 00:45:53;;;;;;;10.23;5.32;;;;;;;;;;5089180;28;20395;-50
2022/01/07 00:48:19;;;;;;;11.35;4.85;;;;;;;;;;5088629;28;20074;-50
2022/01/07 00:50:45;;;;;;;8.80;5.13;;;;;;;;;;5087752;28;20024;-48
2022/01/07 00:53:11;;;;;;;9.18;4.88;;;;;;;;;;5101830;28;20359;-50
2022/01/07 00:55:37;;;;;;;7.90;3.72;;;;;;;;;;5105501;28;20521;-48
2022/01/07 00:58:04;;;;;;;8.48;4.40;;;;;;;;;;5088295;28;20020;-48
2022/01/07 01:00:30;;;;;;;9.20;4.20;;;;;;;;;;5087891;28;20036;-47
2022/01/07 01:02:56;;;;;;;6.80;4.32;;;;;;;;;;5087394;28;20028;-51
2022/01/07 01:05:23;;;;;;;7.75;4.18;;;;;;;;;;5088696;28;20024;-49
2022/01/07 01:07:49;;;;;;;6.78;3.70;;;;;;;;;;5088539;28;20051;-49
2022/01/07 01:10:17;;;;;;;6.07;3.47;;;;;;;;;;5087903;28;20031;-51
2022/01/07 01:12:45;;;;;;;6.47;4.07;;;;;;;;;;5087707;28;20054;-48
2022/01/07 01:15:12;;;;;;;6.05;3.53;;;;;;;;;;5107970;28;20691;-46
2022/01/07 01:17:39;;;;;;;5.30;3.28;;;;;;;;;;5108227;28;20031;-48
2022/01/07 01:20:06;;;;;;;6.40;3.58;;;;;;;;;;5108271;28;20887;-47
2022/01/07 01:22:33;;;;;;;4.15;2.90;;;;;;;;;;5105539;28;20089;-48
2022/01/07 01:24:59;;;;;;;5.60;3.03;;;;;;;;;;5090147;28;20047;-49
2022/01/07 01:27:25;;;;;;;7.05;3.45;;;;;;;;;;5071359;28;20031;-47
2022/01/07 01:29:51;;;;;;;4.80;3.05;;;;;;;;;;5088268;28;20031;-47
2022/01/07 01:32:17;;;;;;;4.60;3.00;;;;;;;;;;5096930;28;20490;-46
2022/01/07 01:34:43;;;;;;;7.38;3.28;;;;;;;;;;5108598;28;20399;-47
2022/01/07 01:37:10;;;;;;;6.65;2.95;;;;;;;;;;5107609;28;20043;-48
2022/01/07 01:39:36;;;;;;;4.35;2.90;;;;;;;;;;5107848;28;20028;-49
2022/01/07 01:42:02;;;;;;;4.95;2.83;;;;;;;;;;5098965;28;20514;-48
2022/01/07 01:44:28;;;;;;;6.53;3.08;;;;;;;;;;5107834;28;20023;-49
2022/01/07 01:46:54;;;;;;;7.25;3.70;;;;;;;;;;5106198;28;20050;-49
2022/01/07 01:49:21;;;;;;;5.65;3.30;;;;;;;;;;5085226;28;20020;-50
2022/01/07 01:51:47;;;;;;;6.05;3.17;;;;;;;;;;5087678;28;20107;-50
2022/01/07 01:54:14;;;;;;;5.28;3.25;;;;;;;;;;5085961;28;20085;-47
2022/01/07 01:56:41;;;;;;;5.78;3.00;;;;;;;;;;5086705;28;20761;-47
2022/01/07 01:59:08;;;;;;;5.13;3.08;;;;;;;;;;5086804;28;20016;-47
2022/01/07 02:01:34;;;;;;;6.20;3.17;;;;;;;;;;5097128;28;20165;-47
2022/01/07 02:04:00;;;;;;;5.95;3.10;;;;;;;;;;5104265;28;20028;-47
2022/01/07 02:06:27;;;;;;;5.30;3.00;;;;;;;;;;5107298;28;20024;-49
2022/01/07 02:08:53;;;;;;;5.88;3.28;;;;;;;;;;5107101;28;20091;-47
2022/01/07 02:11:19;;;;;;;4.22;2.67;;;;;;;;;;5097262;28;20059;-48
2022/01/07 02:13:48;;;;;;;7.93;3.00;;;;;;;;;;5099125;28;20414;-50
2022/01/07 02:16:15;;;;;;;4.65;2.53;;;;;;;;;;5107291;28;20023;-51
2022/01/07 02:18:44;;;;;;;4.95;2.53;;;;;;;;;;5107652;28;20035;-48
2022/01/07 02:21:11;;;;;;;4.32;2.90;;;;;;;;;;5107331;28;20042;-48
2022/01/07 02:23:37;;;;;;;6.25;2.88;;;;;;;;;;5101921;28;20034;-47
2022/01/07 02:26:03;;;;;;;5.13;2.75;;;;;;;;;;5099057;28;20032;-47
2022/01/07 02:28:30;;;;;;;5.32;2.70;;;;;;;;;;5086586;28;20025;-49
2022/01/07 02:30:56;;;;;;;4.85;2.78;;;;;;;;;;5084893;28;20439;-51
2022/01/07 02:33:22;;;;;;;4.88;2.80;;;;;;;;;;5086348;28;20020;-46
2022/01/07 02:35:48;;;;;;;4.50;2.65;;;;;;;;;;5086973;28;20536;-47
2022/01/07 02:38:15;;;;;;;3.38;2.53;;;;;;;;;;5086943;28;20028;-48
2022/01/07 02:40:41;;;;;;;5.80;3.15;;;;;;;;;;5084961;28;20062;-48
2022/01/07 02:43:08;;;;;;;5.68;2.80;;;;;;;;;;5095268;28;20027;-47
2022/01/07 02:45:34;;;;;;;5.93;3.13;;;;;;;;;;5106344;28;20023;-47
2022/01/07 02:48:03;;;;;;;3.75;2.53;;;;;;;;;;5106798;28;20030;-47
2022/01/07 02:50:33;;;;;;;4.93;2.85;;;;;;;;;;5095378;28;20032;-50
2022/01/07 02:53:00;;;;;;;6.68;3.30;;;;;;;;;;5086541;28;20023;-49
2022/01/07 02:55:27;;;;;;;4.78;3.08;;;;;;;;;;5085710;28;20035;-48
2022/01/07 02:57:53;;;;;;;6.65;3.33;;;;;;;;;;5086633;28;20027;-47
2022/01/07 03:00:20;;;;;;;5.13;3.03;;;;;;;;;;5096235;28;20112;-47
2022/01/07 03:02:47;;;;;;;5.43;3.28;;;;;;;;;;5106388;28;20031;-47
2022/01/07 03:05:14;;;;;;;4.95;3.10;;;;;;;;;;5106988;28;20023;-47
2022/01/07 03:07:40;;;;;;;5.15;3.08;;;;;;;;;;5106734;28;20036;-48
2022/01/07 03:10:07;;;;;;;7.80;4.10;;;;;;;;;;5102695;28;20030;-49
2022/01/07 03:12:34;;;;;;;7.93;4.40;;;;;;;;;;5094439;28;20039;-47
2022/01/07 03:15:00;;;;;;;7.72;4.15;;;;;;;;;;5106468;28;20092;-48
2022/01/07 03:17:26;;;;;;;7.97;3.88;;;;;;;;;;5106643;28;20035;-46
2022/01/07 03:19:52;;;;;;;7.82;3.88;;;;;;;;;;5103852;28;20383;-50
2022/01/07 03:22:19;;;;;;;9.82;4.75;;;;;;;;;;5106405;28;20487;-47
2022/01/07 03:24:45;;;;;;;6.88;4.07;;;;;;;;;;5091313;28;20024;-48
2022/01/07 03:27:11;;;;;;;6.97;3.75;;;;;;;;;;5085739;28;20486;-47
2022/01/07 03:29:37;;;;;;;7.90;3.85;;;;;;;;;;5085913;28;20043;-47
2022/01/07 03:32:03;;;;;;;11.02;4.18;;;;;;;;;;5083782;28;20046;-48
2022/01/07 03:34:29;;;;;;;6.85;3.80;;;;;;;;;;5074882;28;20035;-48
2022/01/07 03:36:55;;;;;;;7.22;4.00;;;;;;;;;;5106766;28;20047;-46
2022/01/07 03:39:21;;;;;;;8.13;3.85;;;;;;;;;;5106674;28;20028;-47
2022/01/07 03:41:47;;;;;;;8.50;4.30;;;;;;;;;;5093730;28;20028;-47
2022/01/07 03:44:13;;;;;;;5.10;3.40;;;;;;;;;;5085538;28;20027;-48
2022/01/07 03:46:39;;;;;;;7.18;4.00;;;;;;;;;;5090183;28;20398;-49
2022/01/07 03:49:05;;;;;;;5.75;3.42;;;;;;;;;;5090051;28;20773;-47
2022/01/07 03:51:32;;;;;;;6.43;3.75;;;;;;;;;;5090231;28;20024;-49
2022/01/07 03:53:58;;;;;;;7.68;4.20;;;;;;;;;;5088622;28;20028;-47
2022/01/07 03:56:24;;;;;;;6.13;4.03;;;;;;;;;;5100250;28;20486;-49
2022/01/07 03:58:50;;;;;;;6.00;3.63;;;;;;;;;;5072315;28;20078;-48
2022/01/07 04:01:16;;;;;;;6.57;3.65;;;;;;;;;;5090146;28;20532;-49
2022/01/07 04:03:42;;;;;;;5.22;3.47;;;;;;;;;;5100219;28;20526;-48
2022/01/07 04:06:08;;;;;;;6.15;3.33;;;;;;;;;;5107159;28;20096;-49
2022/01/07 04:08:34;;;;;;;6.85;4.00;;;;;;;;;;5109925;28;20452;-47
2022/01/07 04:11:00;;;;;;;8.88;4.47;;;;;;;;;;5091126;28;20028;-47
2022/01/07 04:13:26;;;;;;;6.75;3.75;;;;;;;;;;5089952;28;20051;-49
2022/01/07 04:15:52;;;;;;;6.35;3.80;;;;;;;;;;5088784;28;20028;-47
2022/01/07 04:18:18;;;;;;;8.35;4.63;;;;;;;;;;5089997;28;20767;-47
2022/01/07 04:20:44;;;;;;;6.88;3.88;;;;;;;;;;5088934;28;20380;-46
2022/01/07 04:23:10;;;;;;;5.57;3.53;;;;;;;;;;5089214;28;20031;-50
2022/01/07 04:25:36;;;;;;;7.32;3.78;;;;;;;;;;5089000;28;20499;-47
2022/01/07 04:28:07;;;;;;;5.18;3.10;;;;;;;;;;5089461;28;20022;-47
2022/01/07 04:30:35;;;;;;;6.18;3.28;;;;;;;;;;5087056;28;20039;-47
2022/01/07 04:33:02;;;;;;;6.15;3.40;;;;;;;;;;5109883;28;20084;-49
2022/01/07 04:35:28;;;;;;;5.95;3.42;;;;;;;;;;5109333;28;20032;-46
2022/01/07 04:37:54;;;;;;;6.20;3.58;;;;;;;;;;5109859;28;20035;-48
2022/01/07 04:40:21;;;;;;;6.80;3.80;;;;;;;;;;5106597;28;20459;-48
2022/01/07 04:42:47;;;;;;;4.97;3.15;;;;;;;;;;5089519;28;20030;-48
2022/01/07 04:45:13;;;;;;;6.57;3.70;;;;;;;;;;5088463;28;20107;-47
2022/01/07 04:47:40;;;;;;;6.03;3.78;;;;;;;;;;5089171;28;20024;-46
2022/01/07 04:50:08;;;;;;;6.20;3.22;;;;;;;;;;5089100;28;20109;-47
2022/01/07 04:52:34;;;;;;;7.43;3.65;;;;;;;;;;5088230;28;20025;-46
2022/01/07 04:55:00;;;;;;;5.07;3.22;;;;;;;;;;5109338;28;20023;-48
2022/01/07 04:57:26;;;;;;;6.93;3.85;;;;;;;;;;5088997;28;20448;-49
2022/01/07 04:59:52;;;;;;;5.32;3.20;;;;;;;;;;5088265;28;20031;-51
2022/01/07 05:02:22;;;;;;;5.45;2.90;;;;;;;;;;5099816;28;20023;-47
2022/01/07 05:04:48;;;;;;;7.82;3.72;;;;;;;;;;5092231;28;20107;-47
2022/01/07 05:07:16;;;;;;;7.10;3.55;;;;;;;;;;5087680;28;20036;-47
2022/01/07 05:09:42;;;;;;;5.65;3.40;;;;;;;;;;5086046;28;20387;-51
2022/01/07 05:12:09;;;;;;;5.50;3.38;;;;;;;;;;5097419;28;20033;-46
2022/01/07 05:14:35;;;;;;;5.25;3.13;;;;;;;;;;5108426;28;20027;-47
2022/01/07 05:17:01;;;;;;;5.65;3.55;;;;;;;;;;5089779;28;20032;-50
2022/01/07 05:19:27;;;;;;;5.88;3.30;;;;;;;;;;5099890;28;20752;-46
2022/01/07 05:21:52;;;;;;;6.13;3.55;;;;;;;;;;5095721;28;20114;-48
2022/01/07 05:24:18;;;;;;;4.30;3.03;;;;;;;;;;5085584;28;20034;-47
2022/01/07 05:26:45;;;;;;;5.82;3.38;;;;;;;;;;5086845;28;20487;-49
2022/01/07 05:29:11;;;;;;;4.65;3.30;;;;;;;;;;5081661;28;20507;-49
2022/01/07 05:31:38;;;;;;;5.75;3.55;;;;;;;;;;5084382;28;20028;-49
2022/01/07 05:34:04;;;;;;;6.15;3.30;;;;;;;;;;5089823;28;20023;-51
2022/01/07 05:36:31;;;;;;;5.90;3.45;;;;;;;;;;5106510;28;20023;-50
2022/01/07 05:38:58;;;;;;;6.38;3.17;;;;;;;;;;5083070;28;20039;-48
2022/01/07 05:41:24;;;;;;;4.28;2.90;;;;;;;;;;5089484;28;20028;-49
2022/01/07 05:43:51;;;;;;;5.35;3.30;;;;;;;;;;5092094;28;20052;-50
2022/01/07 05:46:18;;;;;;;4.55;3.28;;;;;;;;;;5086736;28;20132;-47
2022/01/07 05:48:46;;;;;;;5.97;3.28;;;;;;;;;;5087618;28;20047;-51
2022/01/07 05:51:12;;;;;;;4.85;2.70;;;;;;;;;;5093643;28;20031;-49
2022/01/07 05:53:39;;;;;;;6.60;3.25;;;;;;;;;;5097297;28;20091;-50
2022/01/07 05:56:05;;;;;;;4.75;3.00;;;;;;;;;;5090710;28;20028;-50
2022/01/07 05:58:31;;;;;;;5.30;3.58;;;;;;;;;;5103020;28;20032;-49
2022/01/07 06:00:57;;;;;;;6.20;3.80;;;;;;;;;;5086354;28;20506;-48
2022/01/07 06:03:24;;;;;;;8.70;3.88;;;;;;;;;;5078856;28;20108;-50
2022/01/07 06:05:50;;;;;;;7.70;3.72;;;;;;;;;;5084767;28;20024;-50
2022/01/07 06:08:16;;;;;;;6.22;3.72;;;;;;;;;;5067761;28;20617;-51
2022/01/07 06:10:42;;;;;;;10.35;5.20;;;;;;;;;;5086737;28;20031;-51
2022/01/07 06:13:08;;;;;;;10.13;5.22;;;;;;;;;;5086573;28;20032;-50
2022/01/07 06:15:34;;;;;;;12.43;5.40;;;;;;;;;;5089363;28;20028;-47
2022/01/07 06:18:02;;;;;;;13.45;5.20;;;;;;;;;;5093104;28;20075;-51
2022/01/07 06:20:28;;;;;;;11.02;4.97;;;;;;;;;;5107711;28;20019;-51
2022/01/07 06:22:55;;;;;;;13.88;6.45;;;;;;;;;;5102856;28;20493;-48
2022/01/07 06:25:22;;;;;;;14.65;6.60;;;;;;;;;;5105589;28;20024;-50
2022/01/07 06:27:48;;;;;;;16.10;6.85;;;;;;;;;;5098523;28;20062;-49
2022/01/07 06:30:15;;;;;;;16.02;7.43;;;;;;;;;;5099137;28;20456;-50
2022/01/07 06:32:42;;;;;;;15.32;7.00;;;;;;;;;;5086421;28;20020;-49
2022/01/07 06:35:09;;;;;;;12.27;6.82;;;;;;;;;;5086058;28;20020;-48
2022/01/07 06:37:37;;;;;;;15.32;7.10;;;;;;;;;;5085132;28;20092;-48
2022/01/07 06:40:04;;;;;;;12.50;6.40;;;;;;;;;;5077478;28;20055;-51
2022/01/07 06:42:30;;;;;;;14.73;6.20;;;;;;;;;;5085486;28;20600;-50
2022/01/07 06:44:56;;;;;;;13.07;6.05;;;;;;;;;;5067689;28;20093;-49
2022/01/07 06:47:22;;;;;;;11.88;6.25;;;;;;;;;;5085758;28;20490;-51
2022/01/07 06:49:49;;;;;;;12.30;5.72;;;;;;;;;;5084395;28;20028;-49
2022/01/07 06:52:15;;;;;;;9.98;5.78;;;;;;;;;;5085150;28;20054;-49
2022/01/07 06:54:41;;;;;;;9.73;6.18;;;;;;;;;;5085833;28;20168;-48
2022/01/07 06:57:07;;;;;;;13.43;6.75;;;;;;;;;;5091272;28;20535;-48
2022/01/07 06:59:33;;;;;;;15.30;7.65;;;;;;;;;;5106889;28;20031;-49
2022/01/07 07:02:00;;;;;;;20.42;10.05;;;;;;;;;;5107354;28;20030;-50
2022/01/07 07:04:28;;;;;;;20.17;10.40;;;;;;;;;;5106142;28;20098;-50
2022/01/07 07:06:55;;;;;;;14.15;8.77;;;;;;;;;;5103994;28;20027;-50
2022/01/07 07:09:21;;;;;;;14.52;8.50;;;;;;;;;;5105744;28;20546;-49
2022/01/07 07:11:47;;;;;;;14.15;7.07;;;;;;;;;;5092851;28;20438;-50
2022/01/07 07:14:14;;;;;;;13.30;6.80;;;;;;;;;;5085622;28;20023;-48
2022/01/07 07:16:41;;;;;;;9.85;5.95;;;;;;;;;;5092042;28;20528;-50
2022/01/07 07:19:07;;;;;;;11.40;5.93;;;;;;;;;;5105661;28;20052;-50
2022/01/07 07:21:33;;;;;;;11.40;6.05;;;;;;;;;;5074287;28;20025;-49
2022/01/07 07:24:01;;;;;;;9.75;5.30;;;;;;;;;;5083209;28;20099;-52
2022/01/07 07:26:27;;;;;;;10.65;6.20;;;;;;;;;;5092076;28;20455;-53
2022/01/07 07:28:54;;;;;;;10.35;5.80;;;;;;;;;;5106271;28;20513;-51
2022/01/07 07:31:21;;;;;;;10.85;6.40;;;;;;;;;;5100122;28;20077;-52
2022/01/07 07:36:27;;;;;;;14.45;9.30;;;;;;;;;;5086369;28;20075;-47
2022/01/07 07:38:54;;;;;;;16.88;9.98;;;;;;;;;;5105809;28;20662;-52
2022/01/07 07:41:20;;;;;;;14.50;8.75;;;;;;;;;;5083452;28;20144;-51
2022/01/07 07:43:52;;;;;;;10.55;7.22;;;;;;;;;;5083318;28;20024;-47
2022/01/07 07:46:19;;;;;;;11.75;7.50;;;;;;;;;;5083476;28;20036;-51
2022/01/07 07:48:46;;;;;;;8.88;6.03;;;;;;;;;;5068188;28;20020;-48
2022/01/07 07:51:13;;;;;;;9.57;5.88;;;;;;;;;;5086093;28;20452;-51
2022/01/07 07:53:40;;;;;;;8.70;5.03;;;;;;;;;;5101280;28;20466;-47
2022/01/07 07:56:06;;;;;;;8.02;5.13;;;;;;;;;;5098161;28;20071;-52
2022/01/07 07:58:33;;;;;;;9.40;5.05;;;;;;;;;;5085488;28;20032;-48
2022/01/07 08:01:01;;;;;;;7.97;4.63;;;;;;;;;;5085934;28;20510;-51
2022/01/07 08:03:27;;;;;;;8.80;4.65;;;;;;;;;;5084526;28;20511;-52
2022/01/07 08:05:54;;;;;;;8.85;4.70;;;;;;;;;;5085466;28;20039;-48
2022/01/07 08:08:20;;;;;;;10.18;5.90;;;;;;;;;;5085523;28;20024;-48
2022/01/07 08:10:56;;;;;;;12.05;6.32;;;;;;;;;;5085398;28;20021;-48
2022/01/07 08:16:00;;;;;;;11.02;6.03;;;;;;;;;;5102462;28;20046;-52
2022/01/07 08:18:26;;;;;;;;;;;;;;;;;;5086210;28;20020;-51
2022/01/07 08:20:52;;;;;;;10.93;6.10;;;;;;;;;;5086054;28;19916;-47
2022/01/07 08:23:19;;;;;;;12.32;6.55;;;;;;;;;;5084924;28;20036;-50
2022/01/07 08:25:46;;;;;;;15.00;8.52;;;;;;;;;;5093412;28;20526;-47
2022/01/07 08:28:13;;;;;;;16.00;9.30;;;;;;;;;;5085432;28;20016;-49
2022/01/07 08:31:01;;;;;;;18.63;11.85;;;;;;;;;;5085135;28;20028;-49
2022/01/07 08:36:13;;;;;;;20.70;12.70;;;;;;;;;;5090643;28;20545;-50
2022/01/07 08:38:39;;;;;;;24.50;14.68;;;;;;;;;;5083793;28;20035;-50
2022/01/07 08:41:06;;;;;;;25.17;14.68;;;;;;;;;;5095182;28;20024;-49
2022/01/07 08:43:32;;;;;;;26.27;15.27;;;;;;;;;;5090483;28;20028;-53
2022/01/07 08:45:58;;;;;;;32.78;16.77;;;;;;;;;;5110301;28;20025;-51
2022/01/07 08:48:27;;;;;;;33.80;16.80;;;;;;;;;;5110091;28;20287;-48
2022/01/07 08:50:53;;;;;;;32.28;16.45;;;;;;;;;;5101070;28;20032;-50
2022/01/07 08:53:20;;;;;;;31.48;15.93;;;;;;;;;;5090656;28;20463;-51
2022/01/07 08:55:46;;;;;;;27.45;14.68;;;;;;;;;;5097253;28;20709;-50
2022/01/07 08:58:13;;;;;;;23.20;12.18;;;;;;;;;;5090096;28;20036;-49
2022/01/07 09:00:39;;;;;;;21.80;11.23;;;;;;;;;;5095673;28;20032;-48
2022/01/07 09:03:05;;;;;;;20.08;10.32;;;;;;;;;;5089475;28;20426;-49
2022/01/07 09:05:31;;;;;;;21.90;10.75;;;;;;;;;;5087601;28;20048;-49
2022/01/07 09:07:57;;;;;;;18.40;10.05;;;;;;;;;;5100649;28;20036;-48
2022/01/07 09:10:23;;;;;;;17.60;9.02;;;;;;;;;;5086830;28;20101;-50
2022/01/07 09:12:50;;;;;;;16.98;9.30;;;;;;;;;;5086621;28;20047;-51
2022/01/07 09:15:16;;;;;;;14.30;7.80;;;;;;;;;;5086768;28;20073;-48
2022/01/07 09:17:43;;;;;;;13.88;8.40;;;;;;;;;;5089980;28;20044;-49
2022/01/07 09:20:10;;;;;;;12.65;7.35;;;;;;;;;;5084973;28;20032;-47
2022/01/07 09:22:37;;;;;;;14.00;7.43;;;;;;;;;;5070930;28;20113;-49
2022/01/07 09:25:04;;;;;;;12.10;7.10;;;;;;;;;;5087901;28;20383;-52
2022/01/07 09:27:30;;;;;;;13.10;7.47;;;;;;;;;;5087249;28;20493;-48
2022/01/07 09:29:57;;;;;;;15.30;8.50;;;;;;;;;;5100133;28;20519;-48
2022/01/07 09:32:23;;;;;;;16.20;8.77;;;;;;;;;;5089730;28;20056;-49
2022/01/07 09:34:49;;;;;;;16.30;10.07;;;;;;;;;;5088291;28;20028;-50
2022/01/07 09:37:15;;;;;;;18.50;10.05;;;;;;;;;;5099981;28;20599;-49
2022/01/07 09:39:41;;;;;;;17.02;9.70;;;;;;;;;;5077420;28;20036;-48
2022/01/07 09:42:08;;;;;;;17.63;9.63;;;;;;;;;;5088163;28;20140;-49
2022/01/07 09:44:38;;;;;;;17.83;10.23;;;;;;;;;;5083496;28;20484;-51
2022/01/07 09:47:04;;;;;;;18.05;9.30;;;;;;;;;;5088541;28;20083;-48
2022/01/07 09:49:33;;;;;;;15.40;8.85;;;;;;;;;;5085681;28;20028;-48
2022/01/07 09:52:00;;;;;;;17.58;10.07;;;;;;;;;;5085976;28;20032;-49
2022/01/07 09:54:26;;;;;;;16.23;8.52;;;;;;;;;;5087044;28;20028;-47
2022/01/07 09:56:52;;;;;;;16.70;9.55;;;;;;;;;;5090372;28;20048;-47
2022/01/07 09:59:18;;;;;;;19.77;9.02;;;;;;;;;;5094404;28;20513;-51
2022/01/07 10:01:55;;;;;;;16.58;9.02;;;;;;;;;;5094481;28;20035;-48
2022/01/07 10:04:29;;;;;;;15.40;8.90;;;;;;;;;;5096208;28;20022;-48
2022/01/07 10:07:10;;;;;;;19.10;9.80;;;;;;;;;;5108792;28;20023;-50
2022/01/07 10:09:36;;;;;;;16.88;9.32;;;;;;;;;;5087046;28;20088;-47
2022/01/07 10:12:03;;;;;;;17.02;8.50;;;;;;;;;;5084738;28;20062;-47
2022/01/07 10:14:30;;;;;;;13.25;8.40;;;;;;;;;;5085814;28;20028;-49
2022/01/07 10:16:58;;;;;;;13.18;7.38;;;;;;;;;;5086004;28;20024;-50
2022/01/07 10:19:32;;;;;;;13.07;7.30;;;;;;;;;;5093103;28;20028;-48
2022/01/07 10:22:03;;;;;;;12.23;7.28;;;;;;;;;;5088280;28;20024;-50
2022/01/07 10:24:29;;;;;;;12.68;7.15;;;;;;;;;;5087436;28;20027;-50
2022/01/07 10:27:14;;;;;;;11.88;7.05;;;;;;;;;;5087494;28;20044;-50
2022/01/07 10:29:41;;;;;;;11.68;6.88;;;;;;;;;;5086115;28;20027;-48
2022/01/07 10:32:23;;;;;;;10.88;6.63;;;;;;;;;;5101536;28;20031;-51
2022/01/07 10:35:06;;;;;;;10.93;6.43;;;;;;;;;;5105777;28;20063;-49
2022/01/07 10:37:32;;;;;;;10.07;6.43;;;;;;;;;;5086799;28;20024;-47
2022/01/07 10:39:58;;;;;;;12.93;6.70;;;;;;;;;;5092882;28;20402;-48
2022/01/07 10:42:25;;;;;;;10.95;6.38;;;;;;;;;;5087259;28;20020;-49
2022/01/07 10:45:01;;;;;;;12.00;7.20;;;;;;;;;;5079056;28;20088;-51
2022/01/07 10:47:28;;;;;;;11.23;6.88;;;;;;;;;;5082371;28;20089;-49
2022/01/07 10:50:13;;;;;;;11.80;6.45;;;;;;;;;;5087636;28;20507;-50
2022/01/07 10:52:39;;;;;;;10.48;6.15;;;;;;;;;;5087489;28;20517;-49
2022/01/07 10:55:10;;;;;;;10.57;6.07;;;;;;;;;;5086360;28;20033;-53
2022/01/07 10:57:41;;;;;;;10.15;6.28;;;;;;;;;;5088160;28;20110;-48
2022/01/07 11:00:14;;;;;;;10.38;5.57;;;;;;;;;;5077387;28;20115;-53
2022/01/07 11:02:41;;;;;;;12.85;5.78;;;;;;;;;;5081367;28;20016;-50
2022/01/07 11:05:08;;;;;;;8.90;5.55;;;;;;;;;;5087259;28;20024;-52
2022/01/07 11:07:35;;;;;;;9.60;5.13;;;;;;;;;;5087111;28;20028;-49
2022/01/07 11:10:01;;;;;;;9.82;5.22;;;;;;;;;;5085868;28;20395;-48
2022/01/07 11:12:30;;;;;;;11.43;6.10;;;;;;;;;;5087710;28;20248;-49
2022/01/07 11:14:57;;;;;;;9.07;5.60;;;;;;;;;;5086758;28;20053;-49
2022/01/07 11:17:23;;;;;;;10.75;5.75;;;;;;;;;;5085090;28;20035;-48
2022/01/07 11:19:52;;;;;;;12.52;5.97;;;;;;;;;;5091726;28;20083;-49
2022/01/07 11:22:19;;;;;;;9.38;5.85;;;;;;;;;;5085014;28;20016;-49
2022/01/07 11:24:51;;;;;;;10.70;5.60;;;;;;;;;;5084276;28;20063;-49
2022/01/07 11:27:21;;;;;;;8.65;4.90;;;;;;;;;;5086168;28;20019;-49
2022/01/07 11:29:53;;;;;;;8.20;4.90;;;;;;;;;;5085218;28;20024;-52
2022/01/07 11:32:25;;;;;;;8.18;4.57;;;;;;;;;;5099324;28;20020;-48
2022/01/07 11:34:55;;;;;;;7.20;4.88;;;;;;;;;;5086662;28;20032;-49
2022/01/07 11:37:38;;;;;;;7.70;4.65;;;;;;;;;;5083330;28;20027;-49
2022/01/07 11:40:05;;;;;;;7.60;4.32;;;;;;;;;;5093748;28;20032;-49
2022/01/07 11:42:41;;;;;;;7.32;4.70;;;;;;;;;;5097913;28;20028;-50
2022/01/07 11:45:29;;;;;;;7.65;4.40;;;;;;;;;;5084610;28;20084;-51
2022/01/07 11:48:12;;;;;;;5.28;3.60;;;;;;;;;;5084636;28;20134;-52
2022/01/07 11:50:47;;;;;;;7.05;4.45;;;;;;;;;;5095483;28;20081;-49
2022/01/07 11:53:13;;;;;;;6.47;4.45;;;;;;;;;;5097682;28;20067;-48
2022/01/07 11:55:40;;;;;;;6.75;4.18;;;;;;;;;;5090936;28;20038;-49
2022/01/07 11:58:08;;;;;;;5.78;3.63;;;;;;;;;;5086189;28;20060;-49
2022/01/07 12:00:52;;;;;;;8.00;4.35;;;;;;;;;;5083753;28;20088;-49
2022/01/07 12:03:38;;;;;;;6.35;3.72;;;;;;;;;;5094387;28;20402;-49
2022/01/07 12:06:29;;;;;;;5.90;3.53;;;;;;;;;;5087813;28;20399;-52
2022/01/07 12:08:58;;;;;;;7.68;4.10;;;;;;;;;;5089488;28;20048;-52
2022/01/07 12:11:25;;;;;;;7.25;4.20;;;;;;;;;;5089553;28;20034;-48
2022/01/07 12:13:51;;;;;;;7.30;4.05;;;;;;;;;;5090456;28;20039;-51
2022/01/07 12:16:20;;;;;;;7.40;3.75;;;;;;;;;;5101402;28;20036;-53
2022/01/07 12:18:47;;;;;;;6.45;4.15;;;;;;;;;;5090597;28;20454;-50
2022/01/07 12:21:13;;;;;;;7.68;4.60;;;;;;;;;;5094280;28;20111;-48
2022/01/07 12:23:41;;;;;;;8.98;4.60;;;;;;;;;;5096536;28;20027;-49
2022/01/07 12:26:07;;;;;;;6.93;4.15;;;;;;;;;;5088997;28;20088;-52
2022/01/07 12:28:37;;;;;;;6.38;3.88;;;;;;;;;;5093075;28;20020;-48
2022/01/07 12:31:07;;;;;;;6.45;3.72;;;;;;;;;;5088860;28;20043;-50
2022/01/07 12:33:33;;;;;;;7.90;3.55;;;;;;;;;;5099997;28;20080;-52
2022/01/07 12:35:59;;;;;;;6.55;3.65;;;;;;;;;;5090275;28;20410;-49
2022/01/07 12:38:25;;;;;;;5.38;3.00;;;;;;;;;;5069922;28;20502;-51
2022/01/07 12:40:53;;;;;;;5.45;3.47;;;;;;;;;;5087815;28;20024;-48
2022/01/07 12:43:22;;;;;;;6.03;3.92;;;;;;;;;;5092746;28;20106;-48
2022/01/07 12:45:55;;;;;;;7.13;3.70;;;;;;;;;;5082037;28;20035;-48
2022/01/07 12:48:30;;;;;;;5.93;3.88;;;;;;;;;;5089977;28;20424;-48
2022/01/07 12:51:00;;;;;;;8.02;4.13;;;;;;;;;;5079868;28;20497;-49
2022/01/07 12:53:26;;;;;;;7.43;4.03;;;;;;;;;;5089652;28;20028;-52
2022/01/07 12:55:52;;;;;;;6.75;4.07;;;;;;;;;;5089273;28;20020;-49
2022/01/07 12:58:27;;;;;;;8.38;4.20;;;;;;;;;;5089206;28;20456;-49
2022/01/07 13:00:53;;;;;;;8.18;4.00;;;;;;;;;;5088935;28;20028;-50
2022/01/07 13:03:25;;;;;;;7.38;4.38;;;;;;;;;;5086571;28;20028;-48
2022/01/07 13:05:51;;;;;;;7.82;4.28;;;;;;;;;;5084935;28;20024;-50
2022/01/07 13:08:17;;;;;;;5.60;3.78;;;;;;;;;;5089758;28;20356;-48
2022/01/07 13:10:45;;;;;;;7.45;4.15;;;;;;;;;;5086156;28;20024;-49
2022/01/07 13:13:24;;;;;;;6.55;3.75;;;;;;;;;;5084027;28;20040;-48
2022/01/07 13:15:54;;;;;;;7.95;4.65;;;;;;;;;;5085797;28;20080;-49
2022/01/07 13:18:24;;;;;;;6.00;3.92;;;;;;;;;;5091548;28;20032;-49
2022/01/07 13:20:55;;;;;;;5.63;4.10;;;;;;;;;;5087564;28;20032;-48
2022/01/07 13:23:22;;;;;;;7.88;3.80;;;;;;;;;;5092123;28;20051;-48
2022/01/07 13:25:49;;;;;;;6.68;4.25;;;;;;;;;;5102661;28;20107;-48
2022/01/07 13:28:28;;;;;;;6.75;4.28;;;;;;;;;;5085406;28;20404;-53
2022/01/07 13:30:55;;;;;;;8.05;4.53;;;;;;;;;;5083657;28;20016;-51
2022/01/07 13:33:25;;;;;;;5.93;3.78;;;;;;;;;;5082062;28;20510;-50
2022/01/07 13:35:55;;;;;;;6.82;4.25;;;;;;;;;;5086631;28;20442;-49
2022/01/07 13:38:22;;;;;;;6.00;3.78;;;;;;;;;;5095645;28;20024;-51
2022/01/07 13:40:49;;;;;;;5.88;3.78;;;;;;;;;;5103146;28;20407;-49
2022/01/07 13:43:16;;;;;;;9.95;4.63;;;;;;;;;;5088552;28;20035;-50
2022/01/07 13:45:44;;;;;;;7.10;4.20;;;;;;;;;;5087974;28;20518;-49
2022/01/07 13:48:12;;;;;;;7.28;3.67;;;;;;;;;;5068092;28;20522;-48
2022/01/07 13:50:40;;;;;;;6.60;3.67;;;;;;;;;;5093377;28;20027;-49
2022/01/07 13:53:16;;;;;;;5.18;3.42;;;;;;;;;;5086418;28;20173;-50
2022/01/07 13:55:43;;;;;;;6.53;4.13;;;;;;;;;;5084578;28;20032;-48
2022/01/07 13:58:11;;;;;;;8.07;4.53;;;;;;;;;;5084362;28;20077;-48
2022/01/07 14:00:38;;;;;;;7.60;4.18;;;;;;;;;;5086302;28;20421;-48
2022/01/07 14:03:06;;;;;;;7.28;4.43;;;;;;;;;;5086032;28;20021;-50
2022/01/07 14:05:34;;;;;;;6.38;4.32;;;;;;;;;;5084735;28;20035;-51
2022/01/07 14:08:00;;;;;;;7.78;5.05;;;;;;;;;;5087578;28;20024;-48
2022/01/07 14:10:31;;;;;;;8.27;4.80;;;;;;;;;;5103686;28;20046;-48
2022/01/07 14:12:58;;;;;;;8.23;4.90;;;;;;;;;;5086213;28;20028;-52
2022/01/07 14:15:28;;;;;;;9.82;5.07;;;;;;;;;;5087238;28;20126;-49
2022/01/07 14:18:13;;;;;;;9.48;5.22;;;;;;;;;;5104399;28;20209;-48
2022/01/07 14:20:47;;;;;;;5.97;4.05;;;;;;;;;;5096626;28;20046;-51
2022/01/07 14:23:13;;;;;;;;;;;;;;;;;;5085327;28;20024;-49
2022/01/07 14:25:39;;;;;;;8.93;5.22;;;;;;;;;;5085410;28;19991;-50
2022/01/07 14:28:06;;;;;;;11.68;6.05;;;;;;;;;;5102340;28;20039;-50
2022/01/07 14:30:33;;;;;;;11.52;6.53;;;;;;;;;;5090920;28;20402;-52
2022/01/07 14:32:59;;;;;;;12.45;6.38;;;;;;;;;;5092705;28;20092;-48
2022/01/07 14:35:25;;;;;;;10.40;5.97;;;;;;;;;;5083445;28;20024;-52
2022/01/07 14:37:51;;;;;;;11.95;6.60;;;;;;;;;;5085202;28;20086;-49
2022/01/07 14:40:19;;;;;;;11.57;6.25;;;;;;;;;;5094227;28;20035;-48
2022/01/07 14:42:45;;;;;;;12.07;6.32;;;;;;;;;;5083174;28;20020;-48
2022/01/07 14:45:12;;;;;;;9.65;5.63;;;;;;;;;;5083488;28;20070;-48
2022/01/07 14:47:39;;;;;;;9.32;5.45;;;;;;;;;;5079060;28;20039;-50
2022/01/07 14:50:05;;;;;;;10.35;5.90;;;;;;;;;;5086496;28;20028;-49